TimeMST,TemperatureF,Dew PointF,Humidity,Sea Level PressureIn,VisibilityMPH,Wind Direction,Wind SpeedMPH,Gust SpeedMPH,PrecipitationIn,Events,Conditions,WindDirDegrees,DateUTC
12:56 AM,12.9,7.0,77,30.24,-9999.0,WNW,9.2,-,N/A,,Unknown,300,2012-12-29 07:56:00
1:56 AM,10.9,5.0,77,30.26,-9999.0,NW,6.9,-,N/A,,Unknown,310,2012-12-29 08:56:00
2:56 AM,12.9,6.1,74,30.25,-9999.0,WNW,10.4,-,N/A,,Unknown,300,2012-12-29 09:56:00
3:56 AM,12.9,6.1,74,30.27,-9999.0,West,5.8,-,N/A,,Unknown,270,2012-12-29 10:56:00
4:56 AM,15.1,6.1,68,30.29,-9999.0,West,9.2,-,N/A,,Unknown,270,2012-12-29 11:56:00
5:56 AM,10.9,3.9,73,30.34,-9999.0,West,3.5,-,N/A,,Unknown,270,2012-12-29 12:56:00
6:56 AM,14.0,5.0,67,30.33,-9999.0,West,8.1,-,N/A,,Unknown,270,2012-12-29 13:56:00
7:56 AM,15.1,7.0,70,30.36,-9999.0,West,4.6,-,N/A,,Unknown,280,2012-12-29 14:56:00
8:56 AM,26.1,10.9,53,30.35,-9999.0,West,9.2,-,N/A,,Unknown,270,2012-12-29 15:56:00
9:56 AM,36.0,12.0,37,30.32,-9999.0,Calm,Calm,-,N/A,,Unknown,0,2012-12-29 16:56:00
10:56 AM,39.0,3.0,22,30.29,-9999.0,Calm,Calm,-,N/A,,Unknown,0,2012-12-29 17:56:00
11:56 AM,41.0,1.0,19,30.24,-9999.0,SW,9.2,-,N/A,,Unknown,220,2012-12-29 18:56:00
12:56 PM,41.0,8.1,26,30.22,-9999.0,SSW,12.7,-,N/A,,Unknown,210,2012-12-29 19:56:00
1:56 PM,42.1,12.9,31,30.19,-9999.0,SSW,17.3,23.0,N/A,,Unknown,210,2012-12-29 20:56:00
2:56 PM,42.1,12.9,31,30.18,-9999.0,SSW,19.6,-,N/A,,Unknown,210,2012-12-29 21:56:00
3:56 PM,39.9,12.9,33,30.18,-9999.0,SSW,20.7,-,N/A,,Unknown,210,2012-12-29 22:56:00
4:56 PM,34.0,14.0,44,30.16,-9999.0,SSW,12.7,-,N/A,,Unknown,200,2012-12-29 23:56:00
5:56 PM,30.0,17.1,59,30.18,-9999.0,South,15.0,-,N/A,,Unknown,190,2012-12-30 00:56:00
6:56 PM,28.9,18.0,64,30.17,-9999.0,SSW,19.6,-,N/A,,Unknown,210,2012-12-30 01:56:00
7:56 PM,27.0,17.1,66,30.19,-9999.0,South,11.5,-,N/A,,Unknown,190,2012-12-30 02:56:00
8:56 PM,28.0,18.0,66,30.10,-9999.0,SSW,26.5,33.4,N/A,,Unknown,210,2012-12-30 03:56:00
9:56 PM,25.0,17.1,72,30.06,-9999.0,SSW,23.0,-,N/A,,Unknown,210,2012-12-30 04:56:00
10:56 PM,25.0,14.0,63,30.02,-9999.0,SSW,19.6,-,N/A,,Unknown,210,2012-12-30 05:56:00
11:56 PM,28.0,10.9,49,29.97,-9999.0,SW,24.2,34.5,N/A,,Unknown,220,2012-12-30 06:56:00